sensor_id;sensor_type;location;lat;lon;timestamp;P1;durP1;ratioP1;P2;durP2;ratioP2
86047;SDS011;76643;42.822;23.352;2024-03-08T00:02:23;1.98;;;1.52;;
86047;SDS011;76643;42.822;23.352;2024-03-08T00:04:49;1.52;;;1.23;;
86047;SDS011;76643;42.822;23.352;2024-03-08T00:07:14;1.42;;;1.10;;
86047;SDS011;76643;42.822;23.352;2024-03-08T00:09:40;1.38;;;1.15;;
86047;SDS011;76643;42.822;23.352;2024-03-08T00:12:06;1.25;;;0.73;;
86047;SDS011;76643;42.822;23.352;2024-03-08T00:14:31;1.40;;;1.10;;
86047;SDS011;76643;42.822;23.352;2024-03-08T00:16:58;2.08;;;1.23;;
86047;SDS011;76643;42.822;23.352;2024-03-08T00:19:23;0.95;;;0.60;;
86047;SDS011;76643;42.822;23.352;2024-03-08T00:21:49;2.00;;;1.10;;
86047;SDS011;76643;42.822;23.352;2024-03-08T00:24:14;1.77;;;1.30;;
86047;SDS011;76643;42.822;23.352;2024-03-08T00:26:40;1.23;;;0.93;;
86047;SDS011;76643;42.822;23.352;2024-03-08T00:29:07;1.10;;;0.93;;
86047;SDS011;76643;42.822;23.352;2024-03-08T00:31:32;1.50;;;0.93;;
86047;SDS011;76643;42.822;23.352;2024-03-08T00:33:58;1.45;;;0.93;;
86047;SDS011;76643;42.822;23.352;2024-03-08T00:36:23;3.10;;;1.90;;
86047;SDS011;76643;42.822;23.352;2024-03-08T00:38:50;4.18;;;3.88;;
86047;SDS011;76643;42.822;23.352;2024-03-08T00:41:15;1.65;;;0.95;;
86047;SDS011;76643;42.822;23.352;2024-03-08T00:43:41;1.48;;;0.85;;
86047;SDS011;76643;42.822;23.352;2024-03-08T00:46:06;1.42;;;1.10;;
86047;SDS011;76643;42.822;23.352;2024-03-08T00:48:32;1.63;;;1.00;;
86047;SDS011;76643;42.822;23.352;2024-03-08T00:50:58;1.20;;;0.93;;
86047;SDS011;76643;42.822;23.352;2024-03-08T00:53:23;1.65;;;1.02;;
86047;SDS011;76643;42.822;23.352;2024-03-08T00:55:49;1.15;;;0.88;;
86047;SDS011;76643;42.822;23.352;2024-03-08T00:58:14;1.52;;;1.13;;
86047;SDS011;76643;42.822;23.352;2024-03-08T01:00:40;1.55;;;1.00;;
86047;SDS011;76643;42.822;23.352;2024-03-08T01:03:06;1.30;;;1.15;;
86047;SDS011;76643;42.822;23.352;2024-03-08T01:05:32;1.25;;;1.15;;
86047;SDS011;76643;42.822;23.352;2024-03-08T01:07:57;2.05;;;1.38;;
86047;SDS011;76643;42.822;23.352;2024-03-08T01:10:23;1.38;;;1.27;;
86047;SDS011;76643;42.822;23.352;2024-03-08T01:12:49;1.73;;;1.15;;
86047;SDS011;76643;42.822;23.352;2024-03-08T01:15:14;2.08;;;1.17;;
86047;SDS011;76643;42.822;23.352;2024-03-08T01:17:40;1.67;;;1.58;;
86047;SDS011;76643;42.822;23.352;2024-03-08T01:20:06;1.25;;;0.70;;
86047;SDS011;76643;42.822;23.352;2024-03-08T01:22:32;1.95;;;1.52;;
86047;SDS011;76643;42.822;23.352;2024-03-08T01:24:58;1.15;;;0.82;;
86047;SDS011;76643;42.822;23.352;2024-03-08T01:27:24;0.85;;;0.73;;
86047;SDS011;76643;42.822;23.352;2024-03-08T01:29:50;1.35;;;1.25;;
86047;SDS011;76643;42.822;23.352;2024-03-08T01:32:15;0.95;;;0.70;;
86047;SDS011;76643;42.822;23.352;2024-03-08T01:34:41;1.48;;;1.27;;
86047;SDS011;76643;42.822;23.352;2024-03-08T01:37:07;1.23;;;0.88;;
86047;SDS011;76643;42.822;23.352;2024-03-08T01:39:33;1.30;;;0.90;;
86047;SDS011;76643;42.822;23.352;2024-03-08T01:41:58;2.55;;;2.35;;
86047;SDS011;76643;42.822;23.352;2024-03-08T01:44:24;1.48;;;0.85;;
86047;SDS011;76643;42.822;23.352;2024-03-08T01:46:49;1.88;;;1.77;;
86047;SDS011;76643;42.822;23.352;2024-03-08T01:49:18;1.23;;;1.00;;
86047;SDS011;76643;42.822;23.352;2024-03-08T01:51:46;0.80;;;0.70;;
86047;SDS011;76643;42.822;23.352;2024-03-08T01:54:15;0.80;;;0.75;;
86047;SDS011;76643;42.822;23.352;2024-03-08T01:56:43;0.75;;;0.55;;
86047;SDS011;76643;42.822;23.352;2024-03-08T01:59:09;0.95;;;0.80;;
86047;SDS011;76643;42.822;23.352;2024-03-08T02:01:35;1.23;;;1.10;;
86047;SDS011;76643;42.822;23.352;2024-03-08T02:04:00;1.40;;;1.02;;
86047;SDS011;76643;42.822;23.352;2024-03-08T02:06:26;1.27;;;1.05;;
86047;SDS011;76643;42.822;23.352;2024-03-08T02:08:52;1.40;;;0.93;;
86047;SDS011;76643;42.822;23.352;2024-03-08T02:11:18;1.25;;;1.00;;
86047;SDS011;76643;42.822;23.352;2024-03-08T02:13:45;1.00;;;0.75;;
86047;SDS011;76643;42.822;23.352;2024-03-08T02:16:11;0.73;;;0.70;;
86047;SDS011;76643;42.822;23.352;2024-03-08T02:18:36;0.95;;;0.82;;
86047;SDS011;76643;42.822;23.352;2024-03-08T02:21:04;1.10;;;1.00;;
86047;SDS011;76643;42.822;23.352;2024-03-08T02:23:32;0.93;;;0.70;;
86047;SDS011;76643;42.822;23.352;2024-03-08T02:25:58;1.10;;;1.00;;
86047;SDS011;76643;42.822;23.352;2024-03-08T02:28:24;0.82;;;0.73;;
86047;SDS011;76643;42.822;23.352;2024-03-08T02:30:54;0.90;;;0.80;;
86047;SDS011;76643;42.822;23.352;2024-03-08T02:33:22;1.00;;;0.90;;
86047;SDS011;76643;42.822;23.352;2024-03-08T02:35:48;1.08;;;0.82;;
86047;SDS011;76643;42.822;23.352;2024-03-08T02:38:16;0.80;;;0.52;;
86047;SDS011;76643;42.822;23.352;2024-03-08T02:40:44;1.05;;;0.88;;
86047;SDS011;76643;42.822;23.352;2024-03-08T02:43:10;3.25;;;2.67;;
86047;SDS011;76643;42.822;23.352;2024-03-08T02:45:37;1.10;;;1.00;;
86047;SDS011;76643;42.822;23.352;2024-03-08T02:48:03;1.00;;;0.85;;
86047;SDS011;76643;42.822;23.352;2024-03-08T02:50:29;3.47;;;3.28;;
86047;SDS011;76643;42.822;23.352;2024-03-08T02:52:54;2.00;;;1.80;;
86047;SDS011;76643;42.822;23.352;2024-03-08T02:55:20;1.58;;;1.40;;
86047;SDS011;76643;42.822;23.352;2024-03-08T02:57:45;1.35;;;0.95;;
86047;SDS011;76643;42.822;23.352;2024-03-08T03:00:14;0.90;;;0.90;;
86047;SDS011;76643;42.822;23.352;2024-03-08T03:02:40;1.20;;;1.10;;
86047;SDS011;76643;42.822;23.352;2024-03-08T03:05:07;1.17;;;0.93;;
86047;SDS011;76643;42.822;23.352;2024-03-08T03:07:35;1.50;;;1.00;;
86047;SDS011;76643;42.822;23.352;2024-03-08T03:10:01;2.30;;;1.25;;
86047;SDS011;76643;42.822;23.352;2024-03-08T03:12:30;1.85;;;1.30;;
86047;SDS011;76643;42.822;23.352;2024-03-08T03:14:56;1.17;;;1.00;;
86047;SDS011;76643;42.822;23.352;2024-03-08T03:17:23;1.40;;;1.20;;
86047;SDS011;76643;42.822;23.352;2024-03-08T03:19:49;2.33;;;1.80;;
86047;SDS011;76643;42.822;23.352;2024-03-08T03:22:17;2.17;;;1.98;;
86047;SDS011;76643;42.822;23.352;2024-03-08T03:24:43;1.80;;;1.40;;
86047;SDS011;76643;42.822;23.352;2024-03-08T03:27:09;1.33;;;0.88;;
86047;SDS011;76643;42.822;23.352;2024-03-08T03:29:38;1.45;;;1.08;;
86047;SDS011;76643;42.822;23.352;2024-03-08T03:32:05;1.60;;;0.90;;
86047;SDS011;76643;42.822;23.352;2024-03-08T03:34:30;1.90;;;1.40;;
86047;SDS011;76643;42.822;23.352;2024-03-08T03:36:55;1.80;;;1.25;;
86047;SDS011;76643;42.822;23.352;2024-03-08T03:39:21;1.67;;;1.38;;
86047;SDS011;76643;42.822;23.352;2024-03-08T03:41:47;1.90;;;1.23;;
86047;SDS011;76643;42.822;23.352;2024-03-08T03:44:16;3.53;;;3.22;;
86047;SDS011;76643;42.822;23.352;2024-03-08T03:46:42;2.55;;;1.77;;
86047;SDS011;76643;42.822;23.352;2024-03-08T03:49:10;2.10;;;1.55;;
86047;SDS011;76643;42.822;23.352;2024-03-08T03:51:35;4.88;;;3.33;;
86047;SDS011;76643;42.822;23.352;2024-03-08T03:54:01;5.03;;;3.58;;
86047;SDS011;76643;42.822;23.352;2024-03-08T03:56:29;7.65;;;6.43;;
86047;SDS011;76643;42.822;23.352;2024-03-08T03:58:55;6.25;;;4.55;;
86047;SDS011;76643;42.822;23.352;2024-03-08T04:01:21;5.35;;;3.90;;
86047;SDS011;76643;42.822;23.352;2024-03-08T04:03:47;4.63;;;3.35;;
86047;SDS011;76643;42.822;23.352;2024-03-08T04:06:12;3.58;;;2.58;;
86047;SDS011;76643;42.822;23.352;2024-03-08T04:08:39;3.22;;;2.50;;
86047;SDS011;76643;42.822;23.352;2024-03-08T04:11:04;2.25;;;1.63;;
86047;SDS011;76643;42.822;23.352;2024-03-08T04:13:30;2.60;;;1.75;;
86047;SDS011;76643;42.822;23.352;2024-03-08T04:15:56;2.70;;;1.63;;
86047;SDS011;76643;42.822;23.352;2024-03-08T04:18:21;2.58;;;1.83;;
86047;SDS011;76643;42.822;23.352;2024-03-08T04:20:47;2.00;;;1.80;;
86047;SDS011;76643;42.822;23.352;2024-03-08T04:23:12;3.00;;;2.38;;
86047;SDS011;76643;42.822;23.352;2024-03-08T04:25:38;3.42;;;2.80;;
86047;SDS011;76643;42.822;23.352;2024-03-08T04:28:03;3.63;;;2.67;;
86047;SDS011;76643;42.822;23.352;2024-03-08T04:30:29;2.70;;;2.50;;
86047;SDS011;76643;42.822;23.352;2024-03-08T04:32:55;2.90;;;2.40;;
86047;SDS011;76643;42.822;23.352;2024-03-08T04:35:20;3.28;;;2.60;;
86047;SDS011;76643;42.822;23.352;2024-03-08T04:37:46;2.97;;;2.13;;
86047;SDS011;76643;42.822;23.352;2024-03-08T04:40:11;2.70;;;2.13;;
86047;SDS011;76643;42.822;23.352;2024-03-08T04:42:37;2.20;;;1.63;;
86047;SDS011;76643;42.822;23.352;2024-03-08T04:45:06;3.28;;;2.10;;
86047;SDS011;76643;42.822;23.352;2024-03-08T04:47:33;3.30;;;2.42;;
86047;SDS011;76643;42.822;23.352;2024-03-08T04:49:58;2.60;;;2.40;;
86047;SDS011;76643;42.822;23.352;2024-03-08T04:52:24;2.92;;;2.13;;
86047;SDS011;76643;42.822;23.352;2024-03-08T04:54:51;3.00;;;2.38;;
86047;SDS011;76643;42.822;23.352;2024-03-08T04:57:17;2.72;;;2.10;;
86047;SDS011;76643;42.822;23.352;2024-03-08T04:59:43;3.78;;;2.40;;
86047;SDS011;76643;42.822;23.352;2024-03-08T05:02:08;2.80;;;2.42;;
86047;SDS011;76643;42.822;23.352;2024-03-08T05:04:34;3.67;;;2.92;;
86047;SDS011;76643;42.822;23.352;2024-03-08T05:07:00;3.03;;;2.42;;
86047;SDS011;76643;42.822;23.352;2024-03-08T05:09:26;3.60;;;2.42;;
86047;SDS011;76643;42.822;23.352;2024-03-08T05:11:54;3.58;;;2.63;;
86047;SDS011;76643;42.822;23.352;2024-03-08T05:14:19;4.00;;;2.92;;
86047;SDS011;76643;42.822;23.352;2024-03-08T05:16:46;3.13;;;2.22;;
86047;SDS011;76643;42.822;23.352;2024-03-08T05:19:13;2.65;;;2.08;;
86047;SDS011;76643;42.822;23.352;2024-03-08T05:21:41;2.72;;;2.20;;
86047;SDS011;76643;42.822;23.352;2024-03-08T05:24:08;4.25;;;3.95;;
86047;SDS011;76643;42.822;23.352;2024-03-08T05:26:35;3.40;;;1.95;;
86047;SDS011;76643;42.822;23.352;2024-03-08T05:29:00;3.20;;;2.45;;
86047;SDS011;76643;42.822;23.352;2024-03-08T05:31:26;2.78;;;2.20;;
86047;SDS011;76643;42.822;23.352;2024-03-08T05:33:53;2.70;;;2.13;;
86047;SDS011;76643;42.822;23.352;2024-03-08T05:36:20;7.80;;;4.75;;
86047;SDS011;76643;42.822;23.352;2024-03-08T05:38:45;4.35;;;2.67;;
86047;SDS011;76643;42.822;23.352;2024-03-08T05:41:11;3.60;;;2.53;;
86047;SDS011;76643;42.822;23.352;2024-03-08T05:43:40;2.85;;;2.15;;
86047;SDS011;76643;42.822;23.352;2024-03-08T05:46:06;2.53;;;2.05;;
86047;SDS011;76643;42.822;23.352;2024-03-08T05:48:31;2.00;;;1.60;;
86047;SDS011;76643;42.822;23.352;2024-03-08T05:51:00;2.72;;;2.15;;
86047;SDS011;76643;42.822;23.352;2024-03-08T05:53:25;2.60;;;2.40;;
86047;SDS011;76643;42.822;23.352;2024-03-08T05:55:51;2.90;;;2.35;;
86047;SDS011;76643;42.822;23.352;2024-03-08T05:58:17;3.67;;;2.53;;
86047;SDS011;76643;42.822;23.352;2024-03-08T06:00:42;3.65;;;2.50;;
86047;SDS011;76643;42.822;23.352;2024-03-08T06:03:08;3.08;;;2.42;;
86047;SDS011;76643;42.822;23.352;2024-03-08T06:05:34;7.10;;;6.50;;
86047;SDS011;76643;42.822;23.352;2024-03-08T06:07:59;3.28;;;2.38;;
86047;SDS011;76643;42.822;23.352;2024-03-08T06:10:25;3.20;;;2.38;;
86047;SDS011;76643;42.822;23.352;2024-03-08T06:12:51;2.88;;;2.13;;
86047;SDS011;76643;42.822;23.352;2024-03-08T06:15:16;2.33;;;2.08;;
86047;SDS011;76643;42.822;23.352;2024-03-08T06:17:42;2.38;;;1.85;;
86047;SDS011;76643;42.822;23.352;2024-03-08T06:20:08;4.43;;;3.60;;
86047;SDS011;76643;42.822;23.352;2024-03-08T06:22:38;2.90;;;2.10;;
86047;SDS011;76643;42.822;23.352;2024-03-08T06:25:09;3.38;;;2.25;;
86047;SDS011;76643;42.822;23.352;2024-03-08T06:27:38;3.33;;;2.13;;
86047;SDS011;76643;42.822;23.352;2024-03-08T06:30:07;3.13;;;2.40;;
86047;SDS011;76643;42.822;23.352;2024-03-08T06:32:35;3.38;;;2.83;;
86047;SDS011;76643;42.822;23.352;2024-03-08T06:35:03;2.65;;;2.45;;
86047;SDS011;76643;42.822;23.352;2024-03-08T06:37:33;2.60;;;2.30;;
86047;SDS011;76643;42.822;23.352;2024-03-08T06:39:59;3.35;;;2.85;;
86047;SDS011;76643;42.822;23.352;2024-03-08T06:42:25;3.60;;;2.55;;
86047;SDS011;76643;42.822;23.352;2024-03-08T06:44:52;2.70;;;1.92;;
86047;SDS011;76643;42.822;23.352;2024-03-08T06:47:20;2.55;;;1.80;;
86047;SDS011;76643;42.822;23.352;2024-03-08T06:49:46;3.03;;;2.47;;
86047;SDS011;76643;42.822;23.352;2024-03-08T06:52:11;3.55;;;2.65;;
86047;SDS011;76643;42.822;23.352;2024-03-08T06:54:37;3.10;;;2.30;;
86047;SDS011;76643;42.822;23.352;2024-03-08T06:57:03;3.25;;;2.17;;
86047;SDS011;76643;42.822;23.352;2024-03-08T06:59:30;3.35;;;2.67;;
86047;SDS011;76643;42.822;23.352;2024-03-08T07:01:56;3.00;;;1.77;;
86047;SDS011;76643;42.822;23.352;2024-03-08T07:04:21;3.15;;;2.30;;
86047;SDS011;76643;42.822;23.352;2024-03-08T07:06:51;3.00;;;2.05;;
86047;SDS011;76643;42.822;23.352;2024-03-08T07:09:17;3.95;;;3.17;;
86047;SDS011;76643;42.822;23.352;2024-03-08T07:11:42;2.78;;;1.85;;
86047;SDS011;76643;42.822;23.352;2024-03-08T07:14:08;3.75;;;2.33;;
86047;SDS011;76643;42.822;23.352;2024-03-08T07:16:34;2.20;;;1.95;;
86047;SDS011;76643;42.822;23.352;2024-03-08T07:19:03;3.45;;;2.22;;
86047;SDS011;76643;42.822;23.352;2024-03-08T07:21:29;2.80;;;1.92;;
86047;SDS011;76643;42.822;23.352;2024-03-08T07:23:55;3.83;;;2.80;;
86047;SDS011;76643;42.822;23.352;2024-03-08T07:26:26;3.83;;;3.53;;
86047;SDS011;76643;42.822;23.352;2024-03-08T07:28:52;3.72;;;3.08;;
86047;SDS011;76643;42.822;23.352;2024-03-08T07:31:21;2.45;;;2.00;;
86047;SDS011;76643;42.822;23.352;2024-03-08T07:33:56;3.30;;;2.10;;
86047;SDS011;76643;42.822;23.352;2024-03-08T07:36:23;3.17;;;2.65;;
86047;SDS011;76643;42.822;23.352;2024-03-08T07:38:49;3.33;;;2.20;;
86047;SDS011;76643;42.822;23.352;2024-03-08T07:41:15;2.97;;;2.03;;
86047;SDS011;76643;42.822;23.352;2024-03-08T07:43:41;2.95;;;2.15;;
86047;SDS011;76643;42.822;23.352;2024-03-08T07:46:06;2.17;;;1.63;;
86047;SDS011;76643;42.822;23.352;2024-03-08T07:48:34;3.28;;;2.45;;
86047;SDS011;76643;42.822;23.352;2024-03-08T07:51:01;2.70;;;2.05;;
86047;SDS011;76643;42.822;23.352;2024-03-08T07:53:28;3.85;;;2.88;;
86047;SDS011;76643;42.822;23.352;2024-03-08T07:55:53;3.17;;;2.47;;
86047;SDS011;76643;42.822;23.352;2024-03-08T07:58:19;3.00;;;2.05;;
86047;SDS011;76643;42.822;23.352;2024-03-08T08:00:44;2.47;;;2.08;;
86047;SDS011;76643;42.822;23.352;2024-03-08T08:03:10;3.92;;;2.72;;
86047;SDS011;76643;42.822;23.352;2024-03-08T08:05:35;3.22;;;2.13;;
86047;SDS011;76643;42.822;23.352;2024-03-08T08:08:03;4.72;;;3.55;;
86047;SDS011;76643;42.822;23.352;2024-03-08T08:10:31;8.45;;;6.57;;
86047;SDS011;76643;42.822;23.352;2024-03-08T08:12:58;5.18;;;4.00;;
86047;SDS011;76643;42.822;23.352;2024-03-08T08:15:23;7.60;;;5.75;;
86047;SDS011;76643;42.822;23.352;2024-03-08T08:17:49;4.22;;;3.05;;
86047;SDS011;76643;42.822;23.352;2024-03-08T08:20:14;3.83;;;3.50;;
86047;SDS011;76643;42.822;23.352;2024-03-08T08:22:40;3.08;;;2.78;;
86047;SDS011;76643;42.822;23.352;2024-03-08T08:25:06;3.08;;;2.10;;
86047;SDS011;76643;42.822;23.352;2024-03-08T08:27:33;3.83;;;2.30;;
86047;SDS011;76643;42.822;23.352;2024-03-08T08:29:58;2.58;;;2.15;;
86047;SDS011;76643;42.822;23.352;2024-03-08T08:32:24;2.72;;;1.95;;
86047;SDS011;76643;42.822;23.352;2024-03-08T08:34:50;2.65;;;1.58;;
86047;SDS011;76643;42.822;23.352;2024-03-08T08:37:15;2.90;;;1.67;;
86047;SDS011;76643;42.822;23.352;2024-03-08T08:39:41;2.47;;;1.73;;
86047;SDS011;76643;42.822;23.352;2024-03-08T08:42:07;2.25;;;1.63;;
86047;SDS011;76643;42.822;23.352;2024-03-08T08:44:34;2.78;;;1.90;;
86047;SDS011;76643;42.822;23.352;2024-03-08T08:47:00;2.25;;;1.95;;
86047;SDS011;76643;42.822;23.352;2024-03-08T08:49:26;2.35;;;1.77;;
86047;SDS011;76643;42.822;23.352;2024-03-08T08:51:51;2.92;;;1.98;;
86047;SDS011;76643;42.822;23.352;2024-03-08T08:54:17;1.83;;;1.35;;
86047;SDS011;76643;42.822;23.352;2024-03-08T08:56:43;2.35;;;1.73;;
86047;SDS011;76643;42.822;23.352;2024-03-08T08:59:09;1.83;;;1.58;;
86047;SDS011;76643;42.822;23.352;2024-03-08T09:01:35;2.33;;;1.20;;
86047;SDS011;76643;42.822;23.352;2024-03-08T09:04:00;3.05;;;2.75;;
86047;SDS011;76643;42.822;23.352;2024-03-08T09:06:26;1.45;;;1.25;;
86047;SDS011;76643;42.822;23.352;2024-03-08T09:08:51;1.80;;;1.30;;
86047;SDS011;76643;42.822;23.352;2024-03-08T09:11:17;1.70;;;1.30;;
86047;SDS011;76643;42.822;23.352;2024-03-08T09:13:46;2.65;;;1.23;;
86047;SDS011;76643;42.822;23.352;2024-03-08T09:16:12;1.55;;;1.27;;
86047;SDS011;76643;42.822;23.352;2024-03-08T09:18:37;2.45;;;0.90;;
86047;SDS011;76643;42.822;23.352;2024-03-08T09:21:03;1.85;;;1.23;;
86047;SDS011;76643;42.822;23.352;2024-03-08T09:23:30;3.92;;;3.63;;
86047;SDS011;76643;42.822;23.352;2024-03-08T09:25:58;1.33;;;0.80;;
86047;SDS011;76643;42.822;23.352;2024-03-08T09:28:24;1.67;;;1.17;;
86047;SDS011;76643;42.822;23.352;2024-03-08T09:30:50;1.75;;;1.30;;
86047;SDS011;76643;42.822;23.352;2024-03-08T09:33:15;1.40;;;0.75;;
86047;SDS011;76643;42.822;23.352;2024-03-08T09:35:44;1.30;;;1.20;;
86047;SDS011;76643;42.822;23.352;2024-03-08T09:38:12;1.75;;;1.65;;
86047;SDS011;76643;42.822;23.352;2024-03-08T09:40:38;1.30;;;1.02;;
86047;SDS011;76643;42.822;23.352;2024-03-08T09:43:06;2.05;;;1.20;;
86047;SDS011;76643;42.822;23.352;2024-03-08T09:45:31;1.45;;;1.08;;
86047;SDS011;76643;42.822;23.352;2024-03-08T09:48:01;3.25;;;3.05;;
86047;SDS011;76643;42.822;23.352;2024-03-08T09:50:27;2.20;;;1.40;;
86047;SDS011;76643;42.822;23.352;2024-03-08T09:52:54;1.27;;;0.68;;
86047;SDS011;76643;42.822;23.352;2024-03-08T09:55:22;1.48;;;0.90;;
86047;SDS011;76643;42.822;23.352;2024-03-08T09:57:47;1.35;;;1.17;;
86047;SDS011;76643;42.822;23.352;2024-03-08T10:00:33;2.20;;;1.70;;
86047;SDS011;76643;42.822;23.352;2024-03-08T10:03:02;1.90;;;1.23;;
86047;SDS011;76643;42.822;23.352;2024-03-08T10:05:28;2.78;;;2.00;;
86047;SDS011;76643;42.822;23.352;2024-03-08T10:07:55;0.75;;;0.60;;
86047;SDS011;76643;42.822;23.352;2024-03-08T10:10:20;1.23;;;0.60;;
86047;SDS011;76643;42.822;23.352;2024-03-08T10:12:46;0.90;;;0.70;;
86047;SDS011;76643;42.822;23.352;2024-03-08T10:15:15;1.35;;;1.00;;
86047;SDS011;76643;42.822;23.352;2024-03-08T10:17:41;2.47;;;1.55;;
86047;SDS011;76643;42.822;23.352;2024-03-08T10:20:17;1.10;;;0.85;;
86047;SDS011;76643;42.822;23.352;2024-03-08T10:22:43;1.48;;;1.17;;
86047;SDS011;76643;42.822;23.352;2024-03-08T10:25:10;1.13;;;0.82;;
86047;SDS011;76643;42.822;23.352;2024-03-08T10:27:37;0.90;;;0.50;;
86047;SDS011;76643;42.822;23.352;2024-03-08T10:30:04;1.20;;;0.93;;
86047;SDS011;76643;42.822;23.352;2024-03-08T10:32:35;2.13;;;1.17;;
86047;SDS011;76643;42.822;23.352;2024-03-08T10:35:00;2.35;;;1.58;;
86047;SDS011;76643;42.822;23.352;2024-03-08T10:37:49;1.20;;;1.05;;
86047;SDS011;76643;42.822;23.352;2024-03-08T10:40:23;2.15;;;1.73;;
86047;SDS011;76643;42.822;23.352;2024-03-08T10:47:50;0.95;;;0.65;;
86047;SDS011;76643;42.822;23.352;2024-03-08T10:50:29;1.30;;;1.02;;
86047;SDS011;76643;42.822;23.352;2024-03-08T10:52:59;1.60;;;1.08;;
86047;SDS011;76643;42.822;23.352;2024-03-08T10:55:26;1.80;;;1.23;;
86047;SDS011;76643;42.822;23.352;2024-03-08T10:57:53;1.67;;;1.38;;
86047;SDS011;76643;42.822;23.352;2024-03-08T11:00:19;3.08;;;1.52;;
86047;SDS011;76643;42.822;23.352;2024-03-08T11:02:51;2.03;;;1.13;;
86047;SDS011;76643;42.822;23.352;2024-03-08T11:05:31;2.00;;;1.40;;
86047;SDS011;76643;42.822;23.352;2024-03-08T11:08:24;2.50;;;2.30;;
86047;SDS011;76643;42.822;23.352;2024-03-08T11:10:50;1.27;;;0.57;;
86047;SDS011;76643;42.822;23.352;2024-03-08T11:13:32;2.70;;;2.33;;
86047;SDS011;76643;42.822;23.352;2024-03-08T11:16:01;1.80;;;1.08;;
86047;SDS011;76643;42.822;23.352;2024-03-08T11:18:35;0.82;;;0.50;;
86047;SDS011;76643;42.822;23.352;2024-03-08T11:21:03;1.23;;;0.70;;
86047;SDS011;76643;42.822;23.352;2024-03-08T11:23:32;1.38;;;0.77;;
86047;SDS011;76643;42.822;23.352;2024-03-08T11:25:58;1.00;;;0.70;;
86047;SDS011;76643;42.822;23.352;2024-03-08T11:28:24;1.25;;;1.13;;
86047;SDS011;76643;42.822;23.352;2024-03-08T11:31:37;1.15;;;0.93;;
86047;SDS011;76643;42.822;23.352;2024-03-08T11:33:39;2.50;;;0.73;;
86047;SDS011;76643;42.822;23.352;2024-03-08T11:36:27;1.08;;;0.88;;
86047;SDS011;76643;42.822;23.352;2024-03-08T11:38:52;0.82;;;0.57;;
86047;SDS011;76643;42.822;23.352;2024-03-08T11:41:19;1.00;;;0.90;;
86047;SDS011;76643;42.822;23.352;2024-03-08T11:43:46;2.47;;;2.28;;
86047;SDS011;76643;42.822;23.352;2024-03-08T11:46:16;1.30;;;0.98;;
86047;SDS011;76643;42.822;23.352;2024-03-08T11:48:43;2.80;;;2.63;;
86047;SDS011;76643;42.822;23.352;2024-03-08T11:51:13;1.75;;;1.65;;
86047;SDS011;76643;42.822;23.352;2024-03-08T11:53:40;0.70;;;0.50;;
86047;SDS011;76643;42.822;23.352;2024-03-08T11:56:12;1.13;;;0.68;;
86047;SDS011;76643;42.822;23.352;2024-03-08T11:58:39;1.60;;;0.50;;
86047;SDS011;76643;42.822;23.352;2024-03-08T12:03:32;1.25;;;0.88;;
86047;SDS011;76643;42.822;23.352;2024-03-08T12:05:59;2.92;;;0.50;;
86047;SDS011;76643;42.822;23.352;2024-03-08T12:08:30;0.70;;;0.50;;
86047;SDS011;76643;42.822;23.352;2024-03-08T12:10:56;1.13;;;0.75;;
86047;SDS011;76643;42.822;23.352;2024-03-08T12:13:25;1.08;;;0.98;;
86047;SDS011;76643;42.822;23.352;2024-03-08T12:15:59;2.78;;;2.58;;
86047;SDS011;76643;42.822;23.352;2024-03-08T12:18:26;2.10;;;1.95;;
86047;SDS011;76643;42.822;23.352;2024-03-08T12:21:03;2.17;;;0.43;;
86047;SDS011;76643;42.822;23.352;2024-03-08T12:23:36;2.92;;;1.80;;
86047;SDS011;76643;42.822;23.352;2024-03-08T12:26:17;1.33;;;1.05;;
86047;SDS011;76643;42.822;23.352;2024-03-08T12:28:48;1.70;;;1.15;;
86047;SDS011;76643;42.822;23.352;2024-03-08T12:31:16;0.90;;;0.73;;
86047;SDS011;76643;42.822;23.352;2024-03-08T12:33:52;1.02;;;0.80;;
86047;SDS011;76643;42.822;23.352;2024-03-08T12:36:19;3.08;;;2.90;;
86047;SDS011;76643;42.822;23.352;2024-03-08T12:38:45;1.00;;;0.70;;
86047;SDS011;76643;42.822;23.352;2024-03-08T12:41:13;0.95;;;0.73;;
86047;SDS011;76643;42.822;23.352;2024-03-08T12:43:39;4.60;;;0.90;;
86047;SDS011;76643;42.822;23.352;2024-03-08T12:46:05;1.45;;;0.80;;
86047;SDS011;76643;42.822;23.352;2024-03-08T12:48:34;1.30;;;1.08;;
86047;SDS011;76643;42.822;23.352;2024-03-08T12:51:00;1.90;;;0.70;;
86047;SDS011;76643;42.822;23.352;2024-03-08T12:53:26;1.67;;;1.55;;
86047;SDS011;76643;42.822;23.352;2024-03-08T12:55:54;1.65;;;1.05;;
86047;SDS011;76643;42.822;23.352;2024-03-08T12:58:21;3.53;;;3.13;;
86047;SDS011;76643;42.822;23.352;2024-03-08T13:00:47;1.00;;;0.90;;
86047;SDS011;76643;42.822;23.352;2024-03-08T13:03:14;0.77;;;0.65;;
86047;SDS011;76643;42.822;23.352;2024-03-08T13:05:39;1.00;;;0.90;;
86047;SDS011;76643;42.822;23.352;2024-03-08T13:08:05;1.10;;;1.00;;
86047;SDS011;76643;42.822;23.352;2024-03-08T13:10:37;2.40;;;2.20;;
86047;SDS011;76643;42.822;23.352;2024-03-08T13:13:03;1.20;;;1.08;;
86047;SDS011;76643;42.822;23.352;2024-03-08T13:15:30;1.35;;;0.82;;
86047;SDS011;76643;42.822;23.352;2024-03-08T13:17:55;2.13;;;2.00;;
86047;SDS011;76643;42.822;23.352;2024-03-08T13:20:23;2.13;;;1.55;;
86047;SDS011;76643;42.822;23.352;2024-03-08T13:22:48;1.02;;;0.68;;
86047;SDS011;76643;42.822;23.352;2024-03-08T13:25:14;1.70;;;1.17;;
86047;SDS011;76643;42.822;23.352;2024-03-08T13:27:40;1.23;;;0.90;;
86047;SDS011;76643;42.822;23.352;2024-03-08T13:30:07;1.70;;;1.13;;
86047;SDS011;76643;42.822;23.352;2024-03-08T13:32:37;1.20;;;0.80;;
86047;SDS011;76643;42.822;23.352;2024-03-08T13:35:04;1.48;;;1.20;;
86047;SDS011;76643;42.822;23.352;2024-03-08T13:37:37;1.50;;;1.13;;
86047;SDS011;76643;42.822;23.352;2024-03-08T13:40:05;2.40;;;1.80;;
86047;SDS011;76643;42.822;23.352;2024-03-08T13:42:31;0.88;;;0.63;;
86047;SDS011;76643;42.822;23.352;2024-03-08T13:44:56;1.70;;;1.05;;
86047;SDS011;76643;42.822;23.352;2024-03-08T13:47:22;2.25;;;1.58;;
86047;SDS011;76643;42.822;23.352;2024-03-08T13:49:49;3.25;;;2.00;;
86047;SDS011;76643;42.822;23.352;2024-03-08T13:52:15;1.50;;;1.38;;
86047;SDS011;76643;42.822;23.352;2024-03-08T13:54:41;1.02;;;0.50;;
86047;SDS011;76643;42.822;23.352;2024-03-08T13:57:07;1.08;;;0.55;;
86047;SDS011;76643;42.822;23.352;2024-03-08T13:59:36;1.55;;;1.35;;
86047;SDS011;76643;42.822;23.352;2024-03-08T14:02:03;1.20;;;0.80;;
86047;SDS011;76643;42.822;23.352;2024-03-08T14:04:29;1.80;;;1.00;;
86047;SDS011;76643;42.822;23.352;2024-03-08T14:06:55;1.10;;;0.82;;
86047;SDS011;76643;42.822;23.352;2024-03-08T14:09:28;1.63;;;1.25;;
86047;SDS011;76643;42.822;23.352;2024-03-08T14:11:54;3.80;;;3.60;;
86047;SDS011;76643;42.822;23.352;2024-03-08T14:14:23;1.15;;;0.70;;
86047;SDS011;76643;42.822;23.352;2024-03-08T14:16:49;1.40;;;0.93;;
86047;SDS011;76643;42.822;23.352;2024-03-08T14:19:19;1.50;;;1.20;;
86047;SDS011;76643;42.822;23.352;2024-03-08T14:21:45;2.83;;;2.63;;
86047;SDS011;76643;42.822;23.352;2024-03-08T14:24:12;1.20;;;0.70;;
86047;SDS011;76643;42.822;23.352;2024-03-08T14:26:39;1.85;;;1.40;;
86047;SDS011;76643;42.822;23.352;2024-03-08T14:29:07;3.25;;;3.05;;
86047;SDS011;76643;42.822;23.352;2024-03-08T14:31:32;2.42;;;1.00;;
86047;SDS011;76643;42.822;23.352;2024-03-08T14:33:58;1.60;;;1.08;;
86047;SDS011;76643;42.822;23.352;2024-03-08T14:36:24;1.77;;;1.20;;
86047;SDS011;76643;42.822;23.352;2024-03-08T14:38:53;3.13;;;2.22;;
86047;SDS011;76643;42.822;23.352;2024-03-08T14:41:18;1.60;;;1.25;;